createdAt,value
2019-01-20T00:00:27.965Z,26.3
2019-01-20T00:01:30.124Z,26.3
2019-01-20T00:02:32.590Z,26.4
2019-01-20T00:03:34.774Z,26.5
2019-01-20T00:04:37.203Z,26.5
2019-01-20T00:05:39.636Z,26.5
2019-01-20T00:06:42.063Z,26.3
2019-01-20T00:07:44.485Z,26.4
2019-01-20T00:08:46.653Z,26.7
2019-01-20T00:09:49.090Z,26.4
2019-01-20T00:10:51.258Z,26.2
2019-01-20T00:11:53.701Z,26.5
2019-01-20T00:12:55.855Z,26.5
2019-01-20T00:13:58.296Z,26.4
2019-01-20T00:15:00.527Z,26.5
2019-01-20T00:16:02.945Z,26.4
2019-01-20T00:17:04.825Z,26.5
2019-01-20T00:18:07.270Z,26.6
2019-01-20T00:19:09.697Z,26.6
2019-01-20T00:20:12.190Z,26.4
2019-01-20T00:21:14.519Z,26.7
2019-01-20T00:22:16.998Z,26.4
2019-01-20T00:23:18.864Z,26.5
2019-01-20T00:24:20.993Z,26.6
2019-01-20T00:25:23.425Z,26.5
2019-01-20T00:26:25.858Z,26.3
2019-01-20T00:27:28.304Z,26.5
2019-01-20T00:28:30.207Z,26.3
2019-01-20T00:29:32.641Z,26.5
2019-01-20T00:30:34.523Z,26.3
2019-01-20T00:31:36.656Z,26.6
2019-01-20T00:32:39.106Z,26.5
2019-01-20T00:33:41.531Z,26.5
2019-01-20T00:34:43.694Z,26.6
2019-01-20T00:35:46.135Z,26.3
2019-01-20T00:36:48.308Z,26.6
2019-01-20T00:37:50.459Z,26.5
2019-01-20T00:38:52.315Z,26.3
2019-01-20T00:39:54.745Z,26.6
2019-01-20T00:40:56.623Z,26.7
2019-01-20T00:41:59.057Z,26.4
2019-01-20T00:43:01.227Z,26.4
2019-01-20T00:44:03.395Z,26.5
2019-01-20T00:45:05.556Z,26.5
2019-01-20T00:46:07.696Z,26.7
2019-01-20T00:47:10.134Z,26.7
2019-01-20T00:48:12.306Z,26.7
2019-01-20T00:49:14.469Z,26.7
2019-01-20T00:50:16.643Z,26.5
2019-01-20T00:51:19.067Z,26.7
2019-01-20T00:52:20.928Z,26.8
2019-01-20T00:53:23.353Z,26.6
2019-01-20T00:54:25.547Z,26.6
2019-01-20T00:55:27.699Z,26.6
2019-01-20T00:56:30.115Z,26.6
2019-01-20T00:57:31.990Z,26.7
2019-01-20T00:58:34.410Z,26.9
2019-01-20T00:59:36.575Z,26.7
2019-01-20T01:00:38.731Z,26.7
2019-01-20T01:01:40.886Z,26.7
2019-01-20T01:02:43.314Z,26.8
2019-01-20T01:03:45.755Z,26.8
2019-01-20T01:04:48.183Z,26.7
2019-01-20T01:05:50.343Z,26.8
2019-01-20T01:06:52.485Z,26.8
2019-01-20T01:07:54.345Z,26.8
2019-01-20T01:08:56.775Z,26.9
2019-01-20T01:09:59.215Z,26.9
2019-01-20T01:11:01.359Z,26.9
2019-01-20T01:12:03.781Z,26.9
2019-01-20T01:13:05.680Z,26.6
2019-01-20T01:14:08.130Z,26.8
2019-01-20T01:15:10.553Z,26.8
2019-01-20T01:16:12.725Z,26.8
2019-01-20T01:17:14.866Z,27
2019-01-20T01:18:17.293Z,26.8
2019-01-20T01:19:19.457Z,27
2019-01-20T01:20:21.894Z,26.9
2019-01-20T01:21:24.058Z,26.8
2019-01-20T01:22:26.218Z,26.8
2019-01-20T01:23:28.378Z,26.7
2019-01-20T01:24:30.812Z,27
2019-01-20T01:25:33.247Z,26.8
2019-01-20T01:26:36.824Z,27.1
2019-01-20T01:27:39.346Z,26.9
2019-01-20T01:28:41.505Z,26.9
2019-01-20T01:29:43.921Z,27
2019-01-20T01:30:46.346Z,26.8
2019-01-20T01:31:48.773Z,26.9
2019-01-20T01:32:50.647Z,27
2019-01-20T01:33:52.835Z,27.1
2019-01-20T01:34:54.983Z,27
2019-01-20T01:35:57.135Z,26.9
2019-01-20T01:36:59.553Z,27.1
2019-01-20T01:38:01.713Z,27.1
2019-01-20T01:39:03.882Z,27.1
2019-01-20T01:40:06.326Z,26.9
2019-01-20T01:41:08.750Z,26.9
2019-01-20T01:42:10.905Z,27.1
2019-01-20T01:43:13.332Z,27.2
2019-01-20T01:44:15.762Z,27.2
2019-01-20T01:45:18.188Z,26.8
2019-01-20T01:46:20.637Z,26.9
2019-01-20T01:47:23.063Z,26.9
2019-01-20T01:48:25.479Z,27.1
2019-01-20T01:49:27.900Z,27
2019-01-20T01:50:30.054Z,27.2
2019-01-20T01:51:32.189Z,27.3
2019-01-20T01:52:34.604Z,27.2
2019-01-20T01:53:37.054Z,27.3
2019-01-20T01:54:39.464Z,27.1
2019-01-20T01:55:41.889Z,27.2
2019-01-20T01:56:44.039Z,27.3
2019-01-20T01:57:46.463Z,27.2
2019-01-20T01:58:48.335Z,27.4
2019-01-20T01:59:50.767Z,27.3
2019-01-20T02:00:53.195Z,27.2
2019-01-20T02:01:55.634Z,27.1
2019-01-20T02:02:58.058Z,26.9
2019-01-20T02:04:00.482Z,27
2019-01-20T02:05:02.345Z,27.1
2019-01-20T02:06:04.772Z,27.1
2019-01-20T02:07:07.194Z,27.2
2019-01-20T02:08:09.347Z,27.3
2019-01-20T02:09:11.774Z,27.1
2019-01-20T02:10:13.939Z,27.5
2019-01-20T02:11:16.087Z,27.3
2019-01-20T02:12:17.941Z,27.2
2019-01-20T02:13:20.371Z,27.3
2019-01-20T02:14:22.795Z,27.4
2019-01-20T02:15:25.230Z,27.2
2019-01-20T02:16:27.381Z,27.4
2019-01-20T02:17:29.815Z,27.4
2019-01-20T02:18:31.984Z,27.4
2019-01-20T02:19:34.144Z,27.4
2019-01-20T02:20:36.559Z,27.2
2019-01-20T02:21:38.985Z,27.2
2019-01-20T02:22:41.114Z,27.2
2019-01-20T02:23:42.977Z,27.3
2019-01-20T02:24:45.404Z,27.2
2019-01-20T02:25:47.567Z,27.4
2019-01-20T02:26:49.996Z,27.1
2019-01-20T02:27:51.872Z,27.4
2019-01-20T02:28:54.034Z,27.2
2019-01-20T02:29:55.912Z,27.2
2019-01-20T02:30:58.350Z,27.2
2019-01-20T02:32:00.781Z,27.3
2019-01-20T02:33:03.202Z,27.3
2019-01-20T02:34:05.366Z,27.4
2019-01-20T02:35:07.264Z,27.2
2019-01-20T02:36:09.715Z,27.2
2019-01-20T02:37:12.172Z,27.1
2019-01-20T02:38:14.372Z,27.3
2019-01-20T02:39:16.539Z,27.3
2019-01-20T02:40:18.960Z,27.2
2019-01-20T02:41:21.384Z,27.3
2019-01-20T02:42:23.816Z,27.3
2019-01-20T02:43:25.964Z,27.2
2019-01-20T02:44:28.104Z,27.1
2019-01-20T02:45:30.535Z,27.3
2019-01-20T02:46:32.423Z,27.4
2019-01-20T02:47:34.846Z,27.4
2019-01-20T02:48:37.262Z,27.4
2019-01-20T02:49:39.696Z,27.4
2019-01-20T02:50:42.113Z,27.3
2019-01-20T02:51:44.583Z,27.4
2019-01-20T02:52:46.740Z,27.5
2019-01-20T02:53:49.177Z,27.5
2019-01-20T02:54:51.321Z,27.4
2019-01-20T02:55:53.746Z,27.5
2019-01-20T02:56:55.871Z,27.7
2019-01-20T02:57:58.305Z,27.4
2019-01-20T02:59:02.523Z,27.4
2019-01-20T03:00:04.954Z,27.6
2019-01-20T03:01:07.117Z,27.6
2019-01-20T03:02:09.545Z,27.4
2019-01-20T03:03:11.705Z,27.4
2019-01-20T03:04:14.136Z,27.4
2019-01-20T03:05:16.557Z,27.5
2019-01-20T03:06:19.175Z,27.4
2019-01-20T03:07:21.315Z,27.4
2019-01-20T03:08:23.741Z,27.4
2019-01-20T03:09:26.176Z,27.4
2019-01-20T03:10:28.301Z,27.5
2019-01-20T03:11:30.181Z,27.4
2019-01-20T03:12:32.065Z,27.7
2019-01-20T03:13:34.215Z,27.5
2019-01-20T03:14:36.375Z,27.4
2019-01-20T03:15:38.535Z,27.4
2019-01-20T03:16:40.692Z,27.6
2019-01-20T03:17:43.125Z,27.4
2019-01-20T03:18:44.996Z,27.6
2019-01-20T03:19:47.416Z,27.4
2019-01-20T03:20:49.297Z,27.6
2019-01-20T03:21:51.433Z,27.7
2019-01-20T03:22:53.592Z,27.6
2019-01-20T03:23:55.746Z,27.4
2019-01-20T03:24:57.635Z,27.6
2019-01-20T03:26:00.063Z,27.6
2019-01-20T03:27:02.477Z,27.6
2019-01-20T03:28:04.400Z,27.5
2019-01-20T03:29:06.825Z,27.5
2019-01-20T03:30:09.016Z,27.5
2019-01-20T03:31:11.462Z,27.4
2019-01-20T03:32:13.878Z,27.5
2019-01-20T03:33:16.314Z,27.4
2019-01-20T03:34:18.726Z,27.5
2019-01-20T03:35:21.156Z,27.6
2019-01-20T03:36:23.587Z,27.4
2019-01-20T03:37:25.748Z,27.5
2019-01-20T03:38:27.623Z,27.7
2019-01-20T03:39:30.066Z,27.7
2019-01-20T03:40:32.492Z,27.6
2019-01-20T03:41:34.656Z,27.6
2019-01-20T03:42:36.823Z,27.5
2019-01-20T03:43:39.050Z,27.5
2019-01-20T03:44:41.459Z,27.3
2019-01-20T03:45:43.896Z,27.5
2019-01-20T03:46:46.320Z,27.4
2019-01-20T03:47:50.438Z,27.4
2019-01-20T03:48:52.581Z,27.4
2019-01-20T03:49:55.016Z,27.3
2019-01-20T03:50:57.451Z,27.5
2019-01-20T03:51:59.598Z,27.2
2019-01-20T03:53:02.036Z,27.4
2019-01-20T03:54:04.195Z,27.3
2019-01-20T03:55:06.358Z,27.6
2019-01-20T03:56:08.249Z,27.3
2019-01-20T03:57:10.140Z,27.3
2019-01-20T03:58:12.301Z,27.5
2019-01-20T03:59:14.718Z,27.4
2019-01-20T04:00:16.586Z,27.6
2019-01-20T04:01:18.736Z,27.6
2019-01-20T04:02:21.174Z,27.5
2019-01-20T04:03:23.331Z,27.7
2019-01-20T04:04:25.526Z,27.6
2019-01-20T04:05:27.681Z,27.5
2019-01-20T04:06:29.865Z,27.5
2019-01-20T04:07:32.308Z,27.4
2019-01-20T04:08:34.459Z,27.4
2019-01-20T04:09:36.607Z,27.4
2019-01-20T04:10:39.013Z,27.4
2019-01-20T04:11:41.433Z,27.5
2019-01-20T04:12:43.860Z,27.3
2019-01-20T04:13:46.027Z,27.4
2019-01-20T04:14:48.456Z,27.4
2019-01-20T04:15:50.885Z,27.3
2019-01-20T04:16:53.313Z,27.3
2019-01-20T04:17:55.454Z,27.2
2019-01-20T04:18:57.875Z,27.3
2019-01-20T04:20:00.041Z,27.4
2019-01-20T04:21:02.465Z,27.2
2019-01-20T04:22:04.897Z,27.3
2019-01-20T04:23:07.065Z,27.1
2019-01-20T04:24:09.483Z,27.2
2019-01-20T04:25:11.688Z,27.4
2019-01-20T04:26:14.125Z,27.1
2019-01-20T04:27:16.285Z,27.1
2019-01-20T04:28:18.418Z,27.2
2019-01-20T04:29:20.556Z,27.2
2019-01-20T04:30:22.970Z,27.3
2019-01-20T04:31:25.421Z,27.4
2019-01-20T04:32:27.879Z,27.4
2019-01-20T04:33:29.753Z,27.3
2019-01-20T04:34:31.640Z,27
2019-01-20T04:35:33.491Z,27
2019-01-20T04:36:35.908Z,27
2019-01-20T04:37:38.340Z,27.3
2019-01-20T04:38:40.494Z,27.2
2019-01-20T04:39:42.962Z,27.4
2019-01-20T04:40:45.391Z,26.9
2019-01-20T04:41:47.269Z,27.1
2019-01-20T04:42:49.717Z,27.1
2019-01-20T04:43:52.419Z,27.1
2019-01-20T04:44:54.353Z,27.1
2019-01-20T04:45:56.785Z,27.2
2019-01-20T04:46:59.213Z,27
2019-01-20T04:48:01.382Z,26.9
2019-01-20T04:49:03.533Z,27
2019-01-20T04:50:05.967Z,27.2
2019-01-20T04:51:08.112Z,27
2019-01-20T04:52:10.545Z,27
2019-01-20T04:53:12.695Z,27.3
2019-01-20T04:54:14.585Z,27.2
2019-01-20T04:55:16.720Z,27.1
2019-01-20T04:56:19.145Z,27.1
2019-01-20T04:57:21.303Z,26.9
2019-01-20T04:58:24.122Z,27.2
2019-01-20T04:59:26.577Z,27.1
2019-01-20T05:00:28.994Z,27.2
2019-01-20T05:01:31.150Z,26.9
2019-01-20T05:02:33.572Z,27.1
2019-01-20T05:03:35.990Z,27.1
2019-01-20T05:04:38.171Z,27.1
2019-01-20T05:05:40.641Z,27.1
2019-01-20T05:06:43.066Z,27.3
2019-01-20T05:07:45.228Z,27.3
2019-01-20T05:08:47.656Z,27.1
2019-01-20T05:09:49.803Z,27.2
2019-01-20T05:10:51.969Z,27.2
2019-01-20T05:11:54.387Z,27.1
2019-01-20T05:12:56.815Z,27.1
2019-01-20T05:13:59.244Z,27.1
2019-01-20T05:15:01.686Z,27
2019-01-20T05:16:03.833Z,27.1
2019-01-20T05:17:06.295Z,27
2019-01-20T05:18:08.717Z,27.2
2019-01-20T05:19:11.144Z,27
2019-01-20T05:20:13.306Z,26.9
2019-01-20T05:21:15.727Z,27.2
2019-01-20T05:22:18.157Z,27.2
2019-01-20T05:23:20.586Z,27.1
2019-01-20T05:24:22.735Z,27.3
2019-01-20T05:25:24.882Z,27.1
2019-01-20T05:26:27.305Z,27
2019-01-20T05:27:29.461Z,27.1
2019-01-20T05:28:31.898Z,27
2019-01-20T05:29:34.318Z,27.1
2019-01-20T05:30:36.748Z,27.2
2019-01-20T05:31:38.665Z,27.2
2019-01-20T05:32:41.078Z,27
2019-01-20T05:33:43.516Z,27
2019-01-20T05:34:45.946Z,26.9
2019-01-20T05:35:48.096Z,27.1
2019-01-20T05:36:50.255Z,27.1
2019-01-20T05:37:52.677Z,27.3
2019-01-20T05:38:55.088Z,27.1
2019-01-20T05:39:57.510Z,27
2019-01-20T05:40:59.665Z,27.2
2019-01-20T05:42:01.824Z,27.2
2019-01-20T05:43:03.976Z,27
2019-01-20T05:44:06.405Z,27.1
2019-01-20T05:45:08.547Z,27
2019-01-20T05:46:10.967Z,26.9
2019-01-20T05:47:13.413Z,27.1
2019-01-20T05:48:15.835Z,27
2019-01-20T05:49:18.258Z,27.1
2019-01-20T05:50:20.388Z,26.9
2019-01-20T05:51:22.816Z,27
2019-01-20T05:52:25.243Z,27.2
2019-01-20T05:53:27.673Z,27
2019-01-20T05:54:29.826Z,27.1
2019-01-20T05:55:31.986Z,27.2
2019-01-20T05:56:34.404Z,27.2
2019-01-20T05:57:36.838Z,27.1
2019-01-20T05:58:38.982Z,27.2
2019-01-20T05:59:41.147Z,27.1
2019-01-20T06:00:43.038Z,27.2
2019-01-20T06:01:45.456Z,27.1
2019-01-20T06:02:47.596Z,27.1
2019-01-20T06:03:49.739Z,27
2019-01-20T06:04:51.615Z,27.2
2019-01-20T06:05:54.047Z,26.9
2019-01-20T06:06:56.190Z,27
2019-01-20T06:07:58.618Z,27
2019-01-20T06:09:00.789Z,27.1
2019-01-20T06:10:02.935Z,27
2019-01-20T06:11:05.080Z,26.9
2019-01-20T06:12:07.513Z,27
2019-01-20T06:13:09.935Z,27.2
2019-01-20T06:14:12.366Z,26.8
2019-01-20T06:15:14.798Z,27.1
2019-01-20T06:16:17.036Z,27
2019-01-20T06:17:19.467Z,26.9
2019-01-20T06:18:21.895Z,27
2019-01-20T06:19:23.825Z,27
2019-01-20T06:20:26.235Z,27
2019-01-20T06:21:28.389Z,27
2019-01-20T06:22:31.605Z,26.8
2019-01-20T06:23:34.083Z,27.1
2019-01-20T06:24:36.515Z,27
2019-01-20T06:25:38.686Z,26.8
2019-01-20T06:26:40.847Z,26.9
2019-01-20T06:27:43.307Z,27
2019-01-20T06:28:45.165Z,27
2019-01-20T06:29:47.604Z,27
2019-01-20T06:30:50.032Z,27.1
2019-01-20T06:31:52.183Z,27.1
2019-01-20T06:32:54.048Z,26.8
2019-01-20T06:33:56.483Z,27
2019-01-20T06:34:58.367Z,27.1
2019-01-20T06:36:00.791Z,27.1
2019-01-20T06:37:02.949Z,26.9
2019-01-20T06:38:05.096Z,27.2
2019-01-20T06:39:07.294Z,27
2019-01-20T06:40:09.510Z,27.1
2019-01-20T06:41:11.944Z,27.2
2019-01-20T06:42:14.378Z,26.9
2019-01-20T06:43:16.530Z,27
2019-01-20T06:44:18.415Z,27.2
2019-01-20T06:45:20.840Z,26.9
2019-01-20T06:46:23.004Z,27.2
2019-01-20T06:47:25.430Z,26.9
2019-01-20T06:48:27.856Z,27.1
2019-01-20T06:49:30.013Z,27
2019-01-20T06:50:31.359Z,27
2019-01-20T06:51:33.542Z,26.8
2019-01-20T06:52:35.710Z,27
2019-01-20T06:53:38.126Z,27
2019-01-20T06:54:40.594Z,27.1
2019-01-20T06:55:43.016Z,27
2019-01-20T06:56:45.449Z,27
2019-01-20T06:57:47.888Z,26.9
2019-01-20T06:58:50.312Z,26.9
2019-01-20T06:59:52.749Z,26.9
2019-01-20T07:00:55.174Z,27
2019-01-20T07:01:57.598Z,26.8
2019-01-20T07:02:59.759Z,27.1
2019-01-20T07:04:02.208Z,27
2019-01-20T07:05:04.634Z,27
2019-01-20T07:06:06.790Z,26.9
2019-01-20T07:07:08.951Z,26.9
2019-01-20T07:08:11.386Z,26.9
2019-01-20T07:09:13.814Z,26.9
2019-01-20T07:10:15.902Z,26.8
2019-01-20T07:11:18.317Z,26.9
2019-01-20T07:12:20.758Z,26.9
2019-01-20T07:13:23.194Z,26.8
2019-01-20T07:14:25.668Z,26.7
2019-01-20T07:15:27.830Z,26.7
2019-01-20T07:16:29.757Z,26.9
2019-01-20T07:17:31.672Z,27.1
2019-01-20T07:18:33.824Z,27
2019-01-20T07:19:35.982Z,26.8
2019-01-20T07:20:38.138Z,27
2019-01-20T07:21:40.297Z,27
2019-01-20T07:22:42.194Z,27
2019-01-20T07:23:44.327Z,26.8
2019-01-20T07:24:46.765Z,27
2019-01-20T07:25:49.190Z,27
2019-01-20T07:26:51.619Z,27
2019-01-20T07:27:54.042Z,26.9
2019-01-20T07:28:55.916Z,26.8
2019-01-20T07:29:58.534Z,26.9
2019-01-20T07:31:00.992Z,27
2019-01-20T07:32:03.164Z,26.9
2019-01-20T07:33:05.590Z,27
2019-01-20T07:34:08.024Z,26.9
2019-01-20T07:35:10.168Z,26.9
2019-01-20T07:36:12.603Z,27.1
2019-01-20T07:37:14.772Z,26.8
2019-01-20T07:38:17.250Z,26.8
2019-01-20T07:39:19.692Z,26.9
2019-01-20T07:40:22.260Z,27
2019-01-20T07:41:24.841Z,26.9
2019-01-20T07:42:27.260Z,26.8
2019-01-20T07:43:29.688Z,26.9
2019-01-20T07:44:32.147Z,27
2019-01-20T07:45:34.580Z,26.7
2019-01-20T07:46:37.006Z,26.9
2019-01-20T07:47:38.869Z,26.9
2019-01-20T07:48:41.304Z,26.7
2019-01-20T07:49:43.491Z,26.7
2019-01-20T07:50:45.648Z,26.8
2019-01-20T07:51:49.467Z,26.8
2019-01-20T07:52:51.897Z,26.8
2019-01-20T07:53:54.344Z,26.8
2019-01-20T07:54:56.504Z,26.8
2019-01-20T07:55:58.937Z,26.7
2019-01-20T07:57:01.111Z,26.9
2019-01-20T07:58:03.534Z,26.7
2019-01-20T07:59:05.952Z,26.8
2019-01-20T08:00:07.854Z,26.9
2019-01-20T08:01:10.274Z,26.8
2019-01-20T08:02:12.716Z,26.7
2019-01-20T08:03:14.880Z,26.8
2019-01-20T08:04:17.324Z,26.9
2019-01-20T08:05:19.788Z,26.6
2019-01-20T08:06:22.228Z,26.5
2019-01-20T08:07:24.390Z,26.6
2019-01-20T08:08:26.812Z,26.9
2019-01-20T08:09:28.699Z,26.8
2019-01-20T08:10:31.118Z,26.7
2019-01-20T08:11:33.551Z,26.7
2019-01-20T08:12:35.735Z,26.7
2019-01-20T08:13:38.216Z,26.7
2019-01-20T08:14:40.672Z,26.5
2019-01-20T08:15:43.097Z,26.8
2019-01-20T08:16:45.526Z,26.8
2019-01-20T08:17:47.980Z,26.9
2019-01-20T08:18:50.444Z,26.8
2019-01-20T08:19:52.583Z,26.6
2019-01-20T08:20:55.021Z,26.8
2019-01-20T08:21:57.186Z,26.8
2019-01-20T08:22:59.652Z,26.8
2019-01-20T08:24:03.757Z,26.8
2019-01-20T08:25:05.652Z,26.8
2019-01-20T08:26:08.078Z,26.8
2019-01-20T08:27:10.226Z,26.7
2019-01-20T08:28:12.676Z,26.8
2019-01-20T08:29:14.844Z,26.7
2019-01-20T08:30:17.295Z,26.9
2019-01-20T08:31:19.165Z,26.7
2019-01-20T08:32:21.355Z,26.6
2019-01-20T08:33:23.792Z,26.7
2019-01-20T08:34:25.952Z,26.6
2019-01-20T08:35:28.377Z,26.8
2019-01-20T08:36:30.583Z,26.8
2019-01-20T08:37:34.220Z,26.7
2019-01-20T08:38:36.560Z,26.8
2019-01-20T08:39:39.000Z,26.8
2019-01-20T08:40:41.004Z,26.9
2019-01-20T08:41:43.171Z,26.7
2019-01-20T08:44:02.410Z,26.9
2019-01-20T08:45:04.855Z,26.7
2019-01-20T08:46:07.317Z,26.7
2019-01-20T08:47:09.747Z,26.6
2019-01-20T08:48:12.198Z,26.6
2019-01-20T08:49:14.355Z,26.5
2019-01-20T08:50:16.493Z,26.9
2019-01-20T08:51:18.674Z,26.6
2019-01-20T08:52:20.923Z,26.7
2019-01-20T08:53:23.356Z,26.8
2019-01-20T08:54:25.797Z,27
2019-01-20T08:55:28.249Z,26.5
2019-01-20T08:56:30.445Z,26.8
2019-01-20T08:57:32.613Z,26.6
2019-01-20T08:58:34.761Z,26.7
2019-01-20T08:59:37.225Z,26.6
2019-01-20T09:00:40.680Z,26.7
2019-01-20T09:01:42.969Z,26.7
2019-01-20T09:02:45.149Z,26.9
2019-01-20T09:03:47.571Z,26.7
2019-01-20T09:04:49.745Z,26.9
2019-01-20T09:05:51.899Z,26.6
2019-01-20T09:06:54.322Z,26.7
2019-01-20T09:07:56.811Z,26.8
2019-01-20T09:08:58.959Z,26.6
2019-01-20T09:10:01.116Z,26.7
2019-01-20T09:11:03.300Z,26.9
2019-01-20T09:12:05.459Z,26.8
2019-01-20T09:13:07.894Z,26.5
2019-01-20T09:14:10.074Z,26.6
2019-01-20T09:15:12.524Z,26.8
2019-01-20T09:16:14.955Z,26.9
2019-01-20T09:17:17.384Z,26.8
2019-01-20T09:18:19.814Z,26.8
2019-01-20T09:19:21.986Z,26.9
2019-01-20T09:20:24.574Z,26.8
2019-01-20T09:21:26.729Z,26.7
2019-01-20T09:22:28.863Z,26.8
2019-01-20T09:23:30.999Z,26.7
2019-01-20T09:24:33.423Z,26.8
2019-01-20T09:25:35.578Z,26.5
2019-01-20T09:26:37.729Z,26.7
2019-01-20T09:27:39.307Z,26.7
2019-01-20T09:28:41.736Z,26.8
2019-01-20T09:29:43.901Z,26.9
2019-01-20T09:30:45.781Z,26.7
2019-01-20T09:31:47.984Z,26.6
2019-01-20T09:32:50.141Z,26.8
2019-01-20T09:33:52.273Z,26.7
2019-01-20T09:34:54.424Z,26.6
2019-01-20T09:35:56.852Z,26.8
2019-01-20T09:36:59.287Z,26.8
2019-01-20T09:38:01.423Z,26.8
2019-01-20T09:39:03.856Z,26.8
2019-01-20T09:40:06.285Z,26.7
2019-01-20T09:41:08.443Z,26.9
2019-01-20T09:42:10.879Z,26.7
2019-01-20T09:43:13.300Z,26.9
2019-01-20T09:44:15.457Z,26.8
2019-01-20T09:45:17.896Z,27
2019-01-20T09:46:20.318Z,26.9
2019-01-20T09:47:22.744Z,26.7
2019-01-20T09:48:25.177Z,26.8
2019-01-20T09:49:27.616Z,26.9
2019-01-20T09:50:30.054Z,26.8
2019-01-20T09:51:32.257Z,26.7
2019-01-20T09:52:34.430Z,26.5
2019-01-20T09:53:36.582Z,26.7
2019-01-20T09:54:38.731Z,26.7
2019-01-20T09:55:40.875Z,26.8
2019-01-20T09:56:43.305Z,26.8
2019-01-20T09:57:45.490Z,26.8
2019-01-20T09:58:47.375Z,26.8
2019-01-20T09:59:49.818Z,26.9
2019-01-20T10:00:52.277Z,26.8
2019-01-20T10:01:54.429Z,26.8
2019-01-20T10:02:56.331Z,26.7
2019-01-20T10:03:58.473Z,26.9
2019-01-20T10:05:00.920Z,26.8
2019-01-20T10:06:03.355Z,26.8
2019-01-20T10:07:05.787Z,26.6
2019-01-20T10:08:08.210Z,26.7
2019-01-20T10:09:10.363Z,26.8
2019-01-20T10:10:12.525Z,26.8
2019-01-20T10:11:14.701Z,26.7
2019-01-20T10:12:17.142Z,26.9
2019-01-20T10:13:19.591Z,26.9
2019-01-20T10:14:22.019Z,26.6
2019-01-20T10:15:24.465Z,26.9
2019-01-20T10:16:26.895Z,26.6
2019-01-20T10:17:29.337Z,26.8
2019-01-20T10:18:31.765Z,26.8
2019-01-20T10:19:33.623Z,26.6
2019-01-20T10:20:35.785Z,26.7
2019-01-20T10:21:38.223Z,26.7
2019-01-20T10:22:40.379Z,26.9
2019-01-20T10:23:42.844Z,26.7
2019-01-20T10:24:45.282Z,26.8
2019-01-20T10:25:48.995Z,26.8
2019-01-20T10:26:51.438Z,26.8
2019-01-20T10:27:53.595Z,26.6
2019-01-20T10:28:56.018Z,26.6
2019-01-20T10:29:58.445Z,27
2019-01-20T10:31:00.677Z,26.8
2019-01-20T10:32:03.169Z,26.8
2019-01-20T10:33:04.517Z,26.8
2019-01-20T10:34:06.953Z,26.6
2019-01-20T10:35:09.402Z,26.7
2019-01-20T10:36:11.310Z,26.9
2019-01-20T10:37:13.471Z,26.8
2019-01-20T10:38:15.910Z,26.8
2019-01-20T10:39:18.069Z,26.7
2019-01-20T10:40:20.511Z,26.8
2019-01-20T10:41:22.979Z,26.9
2019-01-20T10:42:25.415Z,26.9
2019-01-20T10:43:27.857Z,26.9
2019-01-20T10:44:30.045Z,26.9
2019-01-20T10:45:32.201Z,26.6
2019-01-20T10:46:34.419Z,26.8
2019-01-20T10:47:36.875Z,26.8
2019-01-20T10:48:39.020Z,26.9
2019-01-20T10:49:41.175Z,26.7
2019-01-20T10:50:43.339Z,26.8
2019-01-20T10:51:45.524Z,26.7
2019-01-20T10:52:47.685Z,26.9
2019-01-20T10:53:53.101Z,27
2019-01-20T10:54:54.856Z,26.9
2019-01-20T10:55:57.301Z,26.8
2019-01-20T10:56:59.724Z,26.8
2019-01-20T10:58:02.168Z,26.7
2019-01-20T10:59:04.610Z,26.8
2019-01-20T11:00:08.262Z,26.9
2019-01-20T11:01:10.700Z,26.9
2019-01-20T11:02:13.143Z,26.6
2019-01-20T11:03:15.575Z,26.7
2019-01-20T11:04:18.005Z,26.8
2019-01-20T11:05:24.557Z,26.6
2019-01-20T11:06:24.853Z,26.8
2019-01-20T11:07:27.034Z,26.8
2019-01-20T11:08:29.478Z,26.6
2019-01-20T11:09:31.906Z,26.8
2019-01-20T11:10:34.337Z,26.9
2019-01-20T11:11:36.772Z,26.5
2019-01-20T11:12:39.196Z,26.8
2019-01-20T11:13:43.027Z,26.8
2019-01-20T11:14:45.195Z,26.6
2019-01-20T11:15:47.626Z,26.7
2019-01-20T11:16:49.857Z,26.9
2019-01-20T11:17:52.925Z,26.5
2019-01-20T11:18:55.454Z,26.9
2019-01-20T11:19:57.343Z,26.9
2019-01-20T11:20:59.811Z,26.9
2019-01-20T11:22:02.265Z,26.5
2019-01-20T11:23:04.420Z,26.7
2019-01-20T11:24:06.345Z,26.5
2019-01-20T11:25:08.774Z,26.5
2019-01-20T11:26:11.207Z,26.6
2019-01-20T11:27:13.382Z,26.5
2019-01-20T11:28:15.833Z,26.8
2019-01-20T11:29:17.983Z,26.8
2019-01-20T11:30:20.424Z,26.8
2019-01-20T11:31:22.839Z,26.5
2019-01-20T11:32:24.994Z,26.8
2019-01-20T11:33:27.447Z,26.8
2019-01-20T11:34:29.893Z,26.6
2019-01-20T11:35:32.060Z,26.7
2019-01-20T11:36:34.212Z,26.8
2019-01-20T11:37:36.379Z,26.6
2019-01-20T11:38:38.265Z,26.8
2019-01-20T11:39:40.700Z,26.7
2019-01-20T11:40:42.869Z,26.6
2019-01-20T11:41:45.027Z,26.7
2019-01-20T11:42:47.215Z,26.6
2019-01-20T11:43:49.651Z,26.8
2019-01-20T11:44:52.075Z,26.6
2019-01-20T11:45:54.501Z,26.7
2019-01-20T11:46:56.926Z,26.7
2019-01-20T11:47:59.345Z,26.8
2019-01-20T11:49:01.771Z,26.9
2019-01-20T11:50:04.207Z,26.6
2019-01-20T11:51:05.806Z,26.7
2019-01-20T11:52:08.238Z,26.5
2019-01-20T11:53:10.671Z,26.8
2019-01-20T11:54:12.553Z,26.4
2019-01-20T11:55:14.697Z,26.7
2019-01-20T11:56:17.150Z,26.7
2019-01-20T11:57:19.326Z,26.7
2019-01-20T11:58:21.764Z,27
2019-01-20T11:59:24.200Z,26.7
2019-01-20T12:00:26.621Z,26.8
2019-01-20T12:01:29.049Z,26.8
2019-01-20T12:02:30.946Z,26.5
2019-01-20T12:03:33.124Z,26.6
2019-01-20T12:04:35.030Z,26.6
2019-01-20T12:05:37.453Z,26.6
2019-01-20T12:06:39.904Z,26.7
2019-01-20T12:07:42.338Z,26.8
2019-01-20T12:08:44.780Z,26.7
2019-01-20T12:09:47.241Z,26.9
2019-01-20T12:10:49.135Z,26.6
2019-01-20T12:11:51.573Z,26.5
2019-01-20T12:12:53.779Z,26.8
2019-01-20T12:13:56.205Z,26.7
2019-01-20T12:14:58.342Z,26.7
2019-01-20T12:16:00.223Z,26.8
2019-01-20T12:17:02.666Z,26.7
2019-01-20T12:18:04.819Z,26.5
2019-01-20T12:19:07.249Z,26.8
2019-01-20T12:20:09.402Z,26.6
2019-01-20T12:21:11.608Z,26.5
2019-01-20T12:22:13.787Z,26.5
2019-01-20T12:23:15.964Z,26.8
2019-01-20T12:24:19.456Z,26.7
2019-01-20T12:25:22.000Z,26.8
2019-01-20T12:26:24.437Z,27
2019-01-20T12:27:26.863Z,26.6
2019-01-20T12:28:29.287Z,26.6
2019-01-20T12:29:31.456Z,26.8
2019-01-20T12:30:33.622Z,26.7
2019-01-20T12:31:36.047Z,26.8
2019-01-20T12:32:38.220Z,26.8
2019-01-20T12:33:40.678Z,26.5
2019-01-20T12:34:43.114Z,26.9
2019-01-20T12:35:45.566Z,26.8
2019-01-20T12:36:47.712Z,26.7
2019-01-20T12:37:49.877Z,26.7
2019-01-20T12:38:52.339Z,26.6
2019-01-20T12:39:54.498Z,26.6
2019-01-20T12:40:56.646Z,26.8
2019-01-20T12:41:57.968Z,26.6
2019-01-20T12:43:00.429Z,26.7
2019-01-20T12:44:02.880Z,26.5
2019-01-20T12:45:05.059Z,26.5
2019-01-20T12:46:06.936Z,26.5
2019-01-20T12:47:09.380Z,26.7
2019-01-20T12:48:11.807Z,26.5
2019-01-20T12:49:13.993Z,26.5
2019-01-20T12:50:16.429Z,26.6
2019-01-20T12:51:18.888Z,26.7
2019-01-20T12:52:21.319Z,26.7
2019-01-20T12:53:23.776Z,26.8
2019-01-20T12:54:25.971Z,26.7
2019-01-20T12:55:28.429Z,26.5
2019-01-20T12:56:30.583Z,26.7
2019-01-20T12:57:32.735Z,26.6
2019-01-20T12:58:34.884Z,26.7
2019-01-20T12:59:37.325Z,26.6
2019-01-20T13:00:39.531Z,26.8
2019-01-20T13:01:42.001Z,26.6
2019-01-20T13:02:44.473Z,27
2019-01-20T13:03:46.964Z,26.7
2019-01-20T13:04:49.151Z,26.8
2019-01-20T13:05:51.356Z,26.6
2019-01-20T13:06:53.803Z,26.5
2019-01-20T13:07:56.399Z,26.6
2019-01-20T13:08:58.577Z,26.5
2019-01-20T13:10:00.729Z,26.5
2019-01-20T13:11:02.932Z,26.6
2019-01-20T13:12:05.102Z,26.9
2019-01-20T13:13:07.303Z,26.7
2019-01-20T13:14:09.180Z,26.7
2019-01-20T13:15:11.613Z,26.5
2019-01-20T13:16:13.790Z,26.8
2019-01-20T13:17:15.681Z,26.8
2019-01-20T13:18:17.862Z,26.8
2019-01-20T13:20:27.549Z,26.7
2019-01-20T13:21:29.988Z,26.7
2019-01-20T13:22:32.178Z,26.8
2019-01-20T13:23:34.366Z,26.8
2019-01-20T13:24:36.536Z,26.6
2019-01-20T13:25:38.707Z,26.7
2019-01-20T13:26:41.153Z,26.7
2019-01-20T13:27:43.626Z,26.6
2019-01-20T13:28:45.795Z,26.6
2019-01-20T13:29:47.966Z,27
2019-01-20T13:30:50.142Z,26.5
2019-01-20T13:31:52.577Z,26.5
2019-01-20T13:32:54.736Z,26.4
2019-01-20T13:33:57.174Z,26.7
2019-01-20T13:34:59.618Z,26.6
2019-01-20T13:36:07.029Z,26.7
2019-01-20T13:37:07.103Z,26.6
2019-01-20T13:38:09.538Z,26.8
2019-01-20T13:39:11.705Z,26.4
2019-01-20T13:40:13.875Z,26.6
2019-01-20T13:41:16.317Z,26.5
2019-01-20T13:42:18.497Z,26.7
2019-01-20T13:43:20.659Z,26.7
2019-01-20T13:44:23.087Z,26.6
2019-01-20T13:45:25.287Z,26.7
2019-01-20T13:46:27.449Z,26.6
2019-01-20T13:47:29.590Z,26.9
2019-01-20T13:48:32.028Z,26.5
2019-01-20T13:49:34.453Z,26.7
2019-01-20T13:50:36.890Z,26.6
2019-01-20T13:51:39.066Z,26.7
2019-01-20T13:52:41.201Z,27
2019-01-20T13:53:43.096Z,27
2019-01-20T13:54:45.534Z,26.9
2019-01-20T13:55:47.698Z,27.1
2019-01-20T13:56:50.135Z,26.9